createdAt,value
2023-05-02T00:02:17.656Z,9.75
2023-05-02T00:04:44.776Z,9.70
2023-05-02T00:07:11.948Z,9.68
2023-05-02T00:09:38.844Z,9.79
2023-05-02T00:12:05.868Z,9.74
2023-05-02T00:14:32.991Z,9.78
2023-05-02T00:16:59.794Z,9.75
2023-05-02T00:19:26.657Z,9.81
2023-05-02T00:21:53.377Z,9.81
2023-05-02T00:24:20.126Z,9.90
2023-05-02T00:26:46.922Z,9.90
2023-05-02T00:29:13.822Z,9.94
2023-05-02T00:31:41.326Z,10.06
2023-05-02T00:34:08.253Z,9.91
2023-05-02T00:36:35.018Z,9.78
2023-05-02T00:39:01.855Z,9.82
2023-05-02T00:41:28.630Z,9.88
2023-05-02T00:43:55.441Z,9.69
2023-05-02T00:46:22.318Z,9.69
2023-05-02T00:48:49.111Z,9.76
2023-05-02T00:51:15.788Z,9.83
2023-05-02T00:53:42.756Z,9.77
2023-05-02T00:56:12.329Z,9.77
2023-05-02T00:58:41.224Z,9.76
2023-05-02T01:01:20.134Z,9.74
2023-05-02T01:03:49.899Z,9.74
2023-05-02T01:06:40.466Z,9.68
2023-05-02T01:09:26.316Z,9.76
2023-05-02T01:12:25.489Z,9.79
2023-05-02T01:14:55.264Z,9.78
2023-05-02T01:17:26.407Z,9.77
2023-05-02T01:19:58.620Z,9.75
2023-05-02T01:22:30.163Z,9.74
2023-05-02T01:25:21.382Z,9.72
2023-05-02T01:28:16.488Z,9.60
2023-05-02T01:30:46.662Z,9.67
2023-05-02T01:33:17.571Z,9.70
2023-05-02T01:35:46.480Z,9.68
2023-05-02T01:38:18.943Z,9.64
2023-05-02T01:40:47.055Z,9.71
2023-05-02T01:43:15.365Z,9.68
2023-05-02T01:45:45.397Z,9.76
2023-05-02T01:48:13.748Z,9.69
2023-05-02T01:50:43.977Z,9.72
2023-05-02T01:53:13.798Z,9.68
2023-05-02T01:55:44.604Z,9.60
2023-05-02T01:58:12.308Z,9.55
2023-05-02T02:00:39.836Z,9.56
2023-05-02T02:03:08.381Z,9.57
2023-05-02T02:05:37.067Z,9.51
2023-05-02T02:08:04.135Z,9.44
2023-05-02T02:10:40.383Z,9.47
2023-05-02T02:13:26.443Z,9.42
2023-05-02T02:16:01.135Z,9.47
2023-05-02T02:18:29.737Z,9.48
2023-05-02T02:20:59.297Z,9.69
2023-05-02T02:23:28.159Z,9.80
2023-05-02T02:25:56.477Z,9.84
2023-05-02T02:28:23.632Z,9.86
2023-05-02T02:30:50.787Z,9.89
2023-05-02T02:33:18.438Z,9.95
2023-05-02T02:35:52.744Z,9.95
2023-05-02T02:38:42.819Z,10.01
2023-05-02T02:41:15.415Z,10.07
2023-05-02T02:44:04.205Z,10.08
2023-05-02T02:46:51.291Z,10.21
2023-05-02T02:50:02.722Z,10.20
2023-05-02T02:53:09.335Z,10.26
2023-05-02T02:55:44.996Z,10.29
2023-05-02T02:58:14.590Z,10.35
2023-05-02T03:00:41.616Z,10.37
2023-05-02T03:03:09.685Z,10.40
2023-05-02T03:05:36.839Z,10.39
2023-05-02T03:08:03.722Z,10.39
2023-05-02T03:10:30.502Z,10.49
2023-05-02T03:12:57.310Z,10.50
2023-05-02T03:15:52.557Z,10.49
2023-05-02T03:18:19.544Z,10.46
2023-05-02T03:20:46.842Z,10.40
2023-05-02T03:23:13.617Z,10.43
2023-05-02T03:25:40.392Z,10.49
2023-05-02T03:28:07.115Z,10.46
2023-05-02T03:30:34.272Z,10.53
2023-05-02T03:33:01.838Z,10.53
2023-05-02T03:35:28.569Z,10.59
2023-05-02T03:37:55.233Z,10.51
2023-05-02T03:40:22.143Z,10.41
2023-05-02T03:42:48.934Z,10.25
2023-05-02T03:45:15.748Z,10.08
2023-05-02T03:47:42.526Z,10.05
2023-05-02T03:50:09.694Z,9.89
2023-05-02T03:52:36.524Z,9.64
2023-05-02T03:55:04.116Z,9.60
2023-05-02T03:57:30.903Z,9.56
2023-05-02T03:59:57.991Z,9.44
2023-05-02T04:02:25.462Z,9.06
2023-05-02T04:04:52.447Z,8.98
2023-05-02T04:07:19.744Z,8.89
2023-05-02T04:09:46.786Z,8.79
2023-05-02T04:12:15.812Z,8.85
2023-05-02T04:14:42.933Z,8.72
2023-05-02T04:17:09.804Z,8.74
2023-05-02T04:19:36.628Z,8.58
2023-05-02T04:22:03.653Z,8.73
2023-05-02T04:24:30.423Z,8.68
2023-05-02T04:26:57.134Z,8.67
2023-05-02T04:29:23.848Z,8.65
2023-05-02T04:31:51.700Z,8.56
2023-05-02T04:34:18.504Z,8.47
2023-05-02T04:36:45.882Z,8.48
2023-05-02T04:39:12.816Z,8.51
2023-05-02T04:41:39.576Z,8.51
2023-05-02T04:44:06.339Z,8.38
2023-05-02T04:46:33.101Z,8.41
2023-05-02T04:48:59.978Z,8.36
2023-05-02T04:51:27.970Z,8.28
2023-05-02T04:53:54.791Z,8.28
2023-05-02T04:56:21.987Z,8.22
2023-05-02T04:58:48.790Z,8.19
2023-05-02T05:01:15.545Z,8.27
2023-05-02T05:03:43.049Z,8.18
2023-05-02T05:06:09.902Z,8.17
2023-05-02T05:08:36.717Z,8.14
2023-05-02T05:11:05.203Z,8.16
2023-05-02T05:13:32.463Z,8.15
2023-05-02T05:15:59.256Z,8.14
2023-05-02T05:18:26.303Z,8.12
2023-05-02T05:20:53.082Z,8.06
2023-05-02T05:23:19.924Z,8.09
2023-05-02T05:25:46.747Z,8.14
2023-05-02T05:28:13.953Z,8.17
2023-05-02T05:30:40.664Z,8.18
2023-05-02T05:33:07.454Z,8.31
2023-05-02T05:35:34.331Z,8.16
2023-05-02T05:38:01.487Z,8.24
2023-05-02T05:40:28.282Z,8.23
2023-05-02T05:42:55.077Z,8.19
2023-05-02T05:45:22.642Z,8.15
2023-05-02T05:47:49.736Z,8.48
2023-05-02T05:50:16.686Z,8.65
2023-05-02T05:52:43.380Z,8.76
2023-05-02T05:55:10.413Z,9.25
2023-05-02T05:57:37.593Z,9.32
2023-05-02T06:00:04.861Z,9.09
2023-05-02T06:02:31.820Z,9.24
2023-05-02T06:04:58.765Z,9.29
2023-05-02T06:07:25.720Z,9.32
2023-05-02T06:09:52.664Z,9.06
2023-05-02T06:12:19.566Z,8.79
2023-05-02T06:14:46.339Z,9.03
2023-05-02T06:17:13.117Z,9.24
2023-05-02T06:19:39.948Z,8.88
2023-05-02T06:22:06.698Z,8.93
2023-05-02T06:24:33.505Z,9.51
2023-05-02T06:27:00.359Z,9.75
2023-05-02T06:29:27.137Z,10.46
2023-05-02T06:31:57.018Z,11.26
2023-05-02T06:34:23.943Z,12.15
2023-05-02T06:36:56.444Z,12.86
2023-05-02T06:39:23.276Z,13.32
2023-05-02T06:41:50.363Z,11.78
2023-05-02T06:44:17.398Z,11.52
2023-05-02T06:46:44.310Z,10.41
2023-05-02T06:49:11.304Z,10.09
2023-05-02T06:51:38.112Z,10.74
2023-05-02T06:54:04.828Z,10.28
2023-05-02T06:56:31.737Z,10.96
2023-05-02T06:58:58.590Z,11.09
2023-05-02T07:01:25.517Z,11.29
2023-05-02T07:03:52.752Z,10.30
2023-05-02T07:06:19.614Z,9.83
2023-05-02T07:08:46.326Z,10.26
2023-05-02T07:11:13.188Z,10.80
2023-05-02T07:13:39.939Z,10.79
2023-05-02T07:16:07.588Z,10.05
2023-05-02T07:18:34.472Z,9.85
2023-05-02T07:21:01.478Z,10.53
2023-05-02T07:23:28.386Z,10.60
2023-05-02T07:25:55.288Z,10.72
2023-05-02T07:28:22.018Z,10.98
2023-05-02T07:30:48.882Z,10.75
2023-05-02T07:33:15.836Z,11.05
2023-05-02T07:35:43.212Z,11.32
2023-05-02T07:38:10.154Z,11.26
2023-05-02T07:40:36.947Z,10.90
2023-05-02T07:43:03.723Z,11.00
2023-05-02T07:45:30.561Z,10.52
2023-05-02T07:47:57.425Z,10.99
2023-05-02T07:50:24.520Z,10.69
2023-05-02T07:52:51.539Z,10.82
2023-05-02T07:55:18.542Z,11.10
2023-05-02T07:57:45.425Z,11.02
2023-05-02T08:00:12.667Z,10.94
2023-05-02T08:02:39.522Z,10.63
2023-05-02T08:05:06.978Z,10.60
2023-05-02T08:07:35.889Z,10.70
2023-05-02T08:10:03.827Z,10.68
2023-05-02T08:12:30.974Z,10.53
2023-05-02T08:14:57.781Z,10.50
2023-05-02T08:17:29.299Z,10.65
2023-05-02T08:19:56.891Z,10.40
2023-05-02T08:22:23.754Z,11.01
2023-05-02T08:24:50.700Z,10.95
2023-05-02T08:27:17.416Z,10.93
2023-05-02T08:29:44.188Z,11.32
2023-05-02T08:32:11.013Z,11.39
2023-05-02T08:34:37.868Z,11.13
2023-05-02T08:37:12.064Z,11.02
2023-05-02T08:39:38.919Z,11.31
2023-05-02T08:42:07.702Z,11.33
2023-05-02T08:44:34.481Z,11.20
2023-05-02T08:47:03.135Z,11.44
2023-05-02T08:49:32.965Z,11.73
2023-05-02T08:52:00.658Z,11.78
2023-05-02T08:54:27.867Z,11.90
2023-05-02T08:56:54.925Z,11.70
2023-05-02T08:59:21.738Z,11.33
2023-05-02T09:01:58.621Z,11.47
2023-05-02T09:04:33.226Z,11.55
2023-05-02T09:06:59.893Z,11.68
2023-05-02T09:09:26.960Z,12.05
2023-05-02T09:11:53.819Z,12.23
2023-05-02T09:14:20.757Z,12.60
2023-05-02T09:16:47.878Z,12.53
2023-05-02T09:19:27.578Z,12.36
2023-05-02T09:22:01.423Z,12.80
2023-05-02T09:24:29.619Z,12.84
2023-05-02T09:27:03.453Z,12.10
2023-05-02T09:29:36.179Z,11.99
2023-05-02T09:32:04.343Z,11.86
2023-05-02T09:34:31.572Z,12.26
2023-05-02T09:36:58.732Z,12.02
2023-05-02T09:39:27.046Z,12.00
2023-05-02T09:41:54.308Z,12.05
2023-05-02T09:44:38.030Z,11.87
2023-05-02T09:47:06.839Z,12.23
2023-05-02T09:49:45.155Z,13.10
2023-05-02T09:52:17.344Z,13.61
2023-05-02T09:54:46.884Z,13.99
2023-05-02T09:57:14.131Z,13.73
2023-05-02T09:59:41.303Z,13.83
2023-05-02T10:02:11.439Z,13.76
2023-05-02T10:04:40.018Z,13.56
2023-05-02T10:07:10.420Z,13.29
2023-05-02T10:09:42.740Z,13.18
2023-05-02T10:12:09.906Z,12.95
2023-05-02T10:14:40.167Z,12.58
2023-05-02T10:17:21.560Z,12.44
2023-05-02T10:19:59.256Z,12.35
2023-05-02T10:22:26.975Z,12.93
2023-05-02T10:24:53.936Z,12.34
2023-05-02T10:27:21.397Z,12.71
2023-05-02T10:29:51.440Z,12.60
2023-05-02T10:32:18.903Z,12.13
2023-05-02T10:34:47.551Z,12.91
2023-05-02T10:37:15.746Z,12.82
2023-05-02T10:39:42.548Z,13.08
2023-05-02T10:42:10.618Z,12.95
2023-05-02T10:44:39.768Z,13.49
2023-05-02T10:47:26.977Z,13.67
2023-05-02T10:49:59.995Z,13.90
2023-05-02T10:52:38.784Z,14.63
2023-05-02T10:55:25.469Z,14.36
2023-05-02T10:57:58.740Z,14.39
2023-05-02T11:00:27.298Z,14.08
2023-05-02T11:02:54.321Z,14.54
2023-05-02T11:05:23.281Z,14.58
2023-05-02T11:07:50.906Z,15.07
2023-05-02T11:10:17.706Z,15.57
2023-05-02T11:12:51.538Z,15.04
2023-05-02T11:15:38.421Z,14.66
2023-05-02T11:18:13.100Z,14.42
2023-05-02T11:20:41.794Z,14.18
2023-05-02T11:23:26.913Z,14.03
2023-05-02T11:26:00.398Z,14.95
2023-05-02T11:28:48.591Z,14.58
2023-05-02T11:31:27.727Z,14.96
2023-05-02T11:34:02.958Z,15.80
2023-05-02T11:36:30.877Z,16.11
2023-05-02T11:38:57.645Z,15.43
2023-05-02T11:41:39.251Z,16.20
2023-05-02T11:44:06.240Z,15.90
2023-05-02T11:46:33.738Z,16.39
2023-05-02T11:49:01.323Z,16.19
2023-05-02T11:51:28.096Z,16.18
2023-05-02T11:53:56.831Z,15.24
2023-05-02T11:56:24.817Z,15.26
2023-05-02T11:59:03.052Z,15.97
2023-05-02T12:01:30.281Z,15.63
2023-05-02T12:04:05.165Z,16.85
2023-05-02T12:06:32.264Z,17.50
2023-05-02T12:09:10.676Z,17.33
2023-05-02T12:11:38.549Z,17.39
2023-05-02T12:14:06.691Z,16.86
2023-05-02T12:16:33.998Z,17.08
2023-05-02T12:19:01.457Z,16.72
2023-05-02T12:21:30.155Z,17.61
2023-05-02T12:23:57.473Z,17.43
2023-05-02T12:26:29.414Z,17.18
2023-05-02T12:28:57.185Z,16.88
2023-05-02T12:31:24.251Z,17.48
2023-05-02T12:33:52.870Z,16.79
2023-05-02T12:36:19.912Z,16.52
2023-05-02T12:38:55.040Z,17.01
2023-05-02T12:41:32.834Z,17.16
2023-05-02T12:44:01.028Z,17.82
2023-05-02T12:46:31.793Z,17.38
2023-05-02T12:49:05.200Z,17.53
2023-05-02T12:51:33.142Z,17.73
2023-05-02T12:54:00.187Z,17.69
2023-05-02T12:56:32.845Z,18.43
2023-05-02T12:59:01.465Z,18.24
2023-05-02T13:01:28.944Z,18.28
2023-05-02T13:03:55.836Z,18.54
2023-05-02T13:06:22.699Z,18.46
2023-05-02T13:08:49.500Z,17.98
2023-05-02T13:11:16.257Z,17.85
2023-05-02T13:13:42.999Z,18.62
2023-05-02T13:16:09.821Z,19.27
2023-05-02T13:18:36.687Z,18.26
2023-05-02T13:21:04.972Z,18.22
2023-05-02T13:23:31.744Z,18.18
2023-05-02T13:25:58.988Z,17.73
2023-05-02T13:28:25.969Z,17.76
2023-05-02T13:30:52.892Z,17.72
2023-05-02T13:33:19.730Z,18.39
2023-05-02T13:35:46.607Z,18.11
2023-05-02T13:38:13.427Z,18.00
2023-05-02T13:40:40.095Z,18.04
2023-05-02T13:43:06.797Z,18.38
2023-05-02T13:45:33.847Z,18.15
2023-05-02T13:48:00.609Z,18.42
2023-05-02T13:50:27.404Z,17.65
2023-05-02T13:52:54.182Z,17.81
2023-05-02T13:55:21.093Z,18.41
2023-05-02T13:57:47.966Z,18.07
2023-05-02T14:00:14.961Z,18.19
2023-05-02T14:02:42.000Z,17.72
2023-05-02T14:05:09.117Z,18.08
2023-05-02T14:07:35.929Z,18.24
2023-05-02T14:10:02.877Z,17.90
2023-05-02T14:12:29.937Z,17.81
2023-05-02T14:14:56.683Z,18.03
2023-05-02T14:17:25.235Z,17.95
2023-05-02T14:19:52.125Z,17.94
2023-05-02T14:22:18.973Z,18.21
2023-05-02T14:24:45.822Z,18.09
2023-05-02T14:27:17.910Z,17.88
2023-05-02T14:29:45.939Z,17.74
2023-05-02T14:32:12.879Z,17.80
2023-05-02T14:34:40.507Z,17.77
2023-05-02T14:37:08.956Z,16.87
2023-05-02T14:39:36.914Z,17.37
2023-05-02T14:42:04.576Z,17.64
2023-05-02T14:44:32.014Z,17.40
2023-05-02T14:46:58.875Z,17.33
2023-05-02T14:49:25.792Z,17.35
2023-05-02T14:51:52.903Z,17.45
2023-05-02T14:54:20.458Z,18.03
2023-05-02T14:56:48.280Z,17.60
2023-05-02T14:59:15.204Z,17.18
2023-05-02T15:01:41.976Z,17.39
2023-05-02T15:04:09.080Z,17.43
2023-05-02T15:06:36.644Z,17.63
2023-05-02T15:09:04.801Z,17.32
2023-05-02T15:11:31.775Z,17.05
2023-05-02T15:13:59.557Z,17.45
2023-05-02T15:16:29.404Z,16.58
2023-05-02T15:18:56.232Z,17.03
2023-05-02T15:21:23.315Z,17.55
2023-05-02T15:23:50.142Z,17.41
2023-05-02T15:26:16.992Z,17.10
2023-05-02T15:28:43.816Z,16.75
2023-05-02T15:31:10.736Z,16.91
2023-05-02T15:33:37.719Z,17.04
2023-05-02T15:36:04.595Z,16.36
2023-05-02T15:38:31.307Z,16.41
2023-05-02T15:41:00.396Z,16.73
2023-05-02T15:43:27.639Z,16.81
2023-05-02T15:45:56.696Z,16.51
2023-05-02T15:48:26.711Z,16.15
2023-05-02T15:50:53.807Z,16.01
2023-05-02T15:53:23.985Z,16.20
2023-05-02T15:55:52.784Z,15.93
2023-05-02T15:58:19.816Z,15.61
2023-05-02T16:00:51.981Z,16.03
2023-05-02T16:03:19.102Z,15.87
2023-05-02T16:05:46.468Z,16.03
2023-05-02T16:08:13.931Z,15.96
2023-05-02T16:10:43.526Z,16.07
2023-05-02T16:13:10.650Z,15.69
2023-05-02T16:15:38.946Z,15.76
2023-05-02T16:18:06.018Z,15.41
2023-05-02T16:20:36.610Z,15.03
2023-05-02T16:23:04.201Z,14.66
2023-05-02T16:25:31.491Z,14.73
2023-05-02T16:27:58.329Z,14.26
2023-05-02T16:30:25.267Z,14.10
2023-05-02T16:32:52.040Z,13.94
2023-05-02T16:35:19.988Z,13.89
2023-05-02T16:37:47.575Z,13.53
2023-05-02T16:40:14.460Z,13.33
2023-05-02T16:42:41.505Z,13.35
2023-05-02T16:45:08.721Z,13.05
2023-05-02T16:47:36.261Z,12.91
2023-05-02T16:50:03.567Z,12.84
2023-05-02T16:52:30.969Z,12.70
2023-05-02T16:54:57.776Z,12.76
2023-05-02T16:57:24.545Z,12.75
2023-05-02T16:59:52.511Z,12.74
2023-05-02T17:02:22.772Z,12.59
2023-05-02T17:04:50.375Z,12.44
2023-05-02T17:07:17.618Z,12.51
2023-05-02T17:09:44.724Z,12.56
2023-05-02T17:12:12.497Z,12.46
2023-05-02T17:14:42.525Z,12.16
2023-05-02T17:17:10.034Z,12.17
2023-05-02T17:19:37.297Z,12.01
2023-05-02T17:22:05.152Z,12.03
2023-05-02T17:24:32.994Z,11.91
2023-05-02T17:27:00.908Z,11.78
2023-05-02T17:29:27.872Z,11.85
2023-05-02T17:31:57.340Z,11.84
2023-05-02T17:34:28.460Z,11.76
2023-05-02T17:36:55.948Z,11.69
2023-05-02T17:39:23.373Z,11.74
2023-05-02T17:41:50.409Z,11.54
2023-05-02T17:44:17.239Z,11.34
2023-05-02T17:46:44.026Z,11.62
2023-05-02T17:49:10.990Z,11.44
2023-05-02T17:51:37.837Z,11.18
2023-05-02T17:54:04.793Z,11.28
2023-05-02T17:56:34.468Z,11.03
2023-05-02T17:59:02.010Z,11.10
2023-05-02T18:01:28.776Z,10.99
2023-05-02T18:03:55.631Z,10.90
2023-05-02T18:06:22.748Z,10.77
2023-05-02T18:08:49.609Z,10.84
2023-05-02T18:11:18.306Z,10.67
2023-05-02T18:13:45.806Z,10.66
2023-05-02T18:16:14.123Z,10.58
2023-05-02T18:18:41.688Z,10.52
2023-05-02T18:21:12.028Z,10.43
2023-05-02T18:23:40.105Z,10.54
2023-05-02T18:26:13.186Z,10.54
2023-05-02T18:28:42.716Z,10.31
2023-05-02T18:31:17.544Z,10.27
2023-05-02T18:33:45.742Z,10.23
2023-05-02T18:36:13.585Z,10.12
2023-05-02T18:38:41.992Z,10.22
2023-05-02T18:41:09.400Z,9.94
2023-05-02T18:43:36.376Z,10.00
2023-05-02T18:46:03.313Z,9.84
2023-05-02T18:48:30.309Z,9.78
2023-05-02T18:50:57.632Z,9.69
2023-05-02T18:53:26.344Z,9.69
2023-05-02T18:55:56.438Z,9.56
2023-05-02T18:58:24.141Z,9.45
2023-05-02T19:00:51.670Z,9.50
2023-05-02T19:03:19.030Z,9.35
2023-05-02T19:05:45.918Z,9.46
2023-05-02T19:08:12.881Z,9.33
2023-05-02T19:10:40.124Z,9.26
2023-05-02T19:13:07.097Z,9.25
2023-05-02T19:15:34.195Z,9.23
2023-05-02T19:18:01.208Z,9.10
2023-05-02T19:20:29.438Z,9.15
2023-05-02T19:23:14.735Z,9.24
2023-05-02T19:25:44.099Z,9.01
2023-05-02T19:28:12.239Z,9.03
2023-05-02T19:30:43.042Z,9.03
2023-05-02T19:33:09.955Z,8.95
2023-05-02T19:35:36.870Z,9.08
2023-05-02T19:38:03.649Z,9.15
2023-05-02T19:40:31.034Z,9.07
2023-05-02T19:42:58.022Z,9.03
2023-05-02T19:45:24.972Z,9.04
2023-05-02T19:47:52.758Z,8.92
2023-05-02T19:50:19.824Z,8.87
2023-05-02T19:52:46.705Z,8.80
2023-05-02T19:55:13.796Z,8.74
2023-05-02T19:57:41.353Z,8.73
2023-05-02T20:00:08.710Z,8.70
2023-05-02T20:02:35.616Z,8.66
2023-05-02T20:05:02.369Z,8.59
2023-05-02T20:07:29.151Z,8.63
2023-05-02T20:09:56.312Z,8.60
2023-05-02T20:12:23.135Z,8.55
2023-05-02T20:14:49.977Z,8.43
2023-05-02T20:17:16.856Z,8.30
2023-05-02T20:19:45.311Z,8.37
2023-05-02T20:22:12.160Z,8.41
2023-05-02T20:24:39.006Z,8.42
2023-05-02T20:27:05.759Z,8.41
2023-05-02T20:29:32.622Z,8.36
2023-05-02T20:31:59.496Z,8.39
2023-05-02T20:34:26.791Z,8.24
2023-05-02T20:36:54.277Z,8.19
2023-05-02T20:39:22.116Z,8.12
2023-05-02T20:41:49.686Z,8.08
2023-05-02T20:44:17.599Z,8.01
2023-05-02T20:46:44.321Z,8.08
2023-05-02T20:49:11.205Z,7.94
2023-05-02T20:51:38.045Z,7.88
2023-05-02T20:54:05.171Z,7.86
2023-05-02T20:56:31.816Z,7.81
2023-05-02T20:58:58.631Z,7.76
2023-05-02T21:01:26.411Z,7.84
2023-05-02T21:03:53.306Z,7.72
2023-05-02T21:06:22.848Z,7.70
2023-05-02T21:08:49.844Z,7.49
2023-05-02T21:11:16.572Z,7.48
2023-05-02T21:13:43.808Z,7.45
2023-05-02T21:16:18.712Z,7.40
2023-05-02T21:18:48.836Z,7.28
2023-05-02T21:21:15.675Z,7.27
2023-05-02T21:23:42.355Z,7.32
2023-05-02T21:26:09.184Z,7.15
2023-05-02T21:28:37.986Z,7.15
2023-05-02T21:31:06.003Z,7.13
2023-05-02T21:33:32.768Z,7.08
2023-05-02T21:35:59.927Z,7.02
2023-05-02T21:38:26.971Z,6.99
2023-05-02T21:40:53.994Z,6.98
2023-05-02T21:43:20.922Z,6.95
2023-05-02T21:45:49.474Z,6.85
2023-05-02T21:48:17.109Z,6.88
2023-05-02T21:50:44.857Z,6.94
2023-05-02T21:53:13.692Z,6.85
2023-05-02T21:55:41.089Z,6.84
2023-05-02T21:58:09.527Z,6.85
2023-05-02T22:00:41.022Z,6.82
2023-05-02T22:03:11.565Z,6.76
2023-05-02T22:05:41.841Z,6.74
2023-05-02T22:08:13.375Z,6.72
2023-05-02T22:10:42.480Z,6.80
2023-05-02T22:13:14.248Z,6.82
2023-05-02T22:15:47.810Z,6.81
2023-05-02T22:18:15.827Z,6.79
2023-05-02T22:20:44.102Z,6.52
2023-05-02T22:23:11.596Z,6.58
2023-05-02T22:25:41.382Z,6.71
2023-05-02T22:28:11.357Z,6.61
2023-05-02T22:30:39.515Z,6.64
2023-05-02T22:33:07.405Z,6.78
2023-05-02T22:35:34.375Z,6.75
2023-05-02T22:38:02.294Z,6.84
2023-05-02T22:40:32.977Z,6.71
2023-05-02T22:43:00.895Z,6.63
2023-05-02T22:45:27.929Z,6.61
2023-05-02T22:47:55.791Z,6.66
2023-05-02T22:50:22.628Z,6.58
2023-05-02T22:52:49.506Z,6.51
2023-05-02T22:55:16.368Z,6.45
2023-05-02T22:57:43.350Z,6.43
2023-05-02T23:00:11.093Z,6.38
2023-05-02T23:02:38.277Z,6.23
2023-05-02T23:05:06.479Z,6.19
2023-05-02T23:07:33.358Z,6.16
2023-05-02T23:10:01.089Z,6.24
2023-05-02T23:12:29.001Z,6.09
2023-05-02T23:14:55.860Z,6.19
2023-05-02T23:17:23.230Z,6.13
2023-05-02T23:19:50.526Z,6.00
2023-05-02T23:22:17.446Z,5.97
2023-05-02T23:24:46.339Z,6.01
2023-05-02T23:27:13.170Z,5.96
2023-05-02T23:29:39.990Z,5.96
2023-05-02T23:32:08.064Z,5.98
2023-05-02T23:34:38.335Z,6.01
2023-05-02T23:37:06.948Z,5.96
2023-05-02T23:39:34.411Z,5.98
2023-05-02T23:42:03.526Z,5.97
2023-05-02T23:44:31.285Z,5.99
2023-05-02T23:47:01.458Z,5.94
2023-05-02T23:49:28.395Z,5.99
2023-05-02T23:51:55.139Z,6.06
2023-05-02T23:54:22.055Z,5.94
2023-05-02T23:56:48.811Z,6.01
2023-05-02T23:59:15.680Z,5.96
